^^
Datos históricos de la estación: Murcia-Puente Tocinos
Diario Informe para Octubre 10, 2019 Unidades:  Ingés    Métrico   Ambas
Diario Semanal Mensual Anual
  Máxima: Mínima: Promedio:
Temperatura: 79.3 °F 68.2 °F 72.7 °F
Punto de rocio: 65.7 °F 61.3 °F 64 °F
Humedad: 86% 56.6% 75%
Velocidad viento: 9.2mph 0mph 3.7mph
Racha viento: 17.3mph - -
Viento- - Este
Presión: 30.1 in 30 in -
Precipitación: 0 in    
 
 
Tabla de datos para Octubre 10, 2019
Hora Temperatura Punto de rocio Presión Viento Velocidad viento Racha viento Humedad Intensidad lluvia(por hora) Nubes
00:04 69.1 °F 63.7 °F 30 in NNE 4 mph 6 mph 83% 0 in
00:09 69.1 °F 63.7 °F 30 in NE 3.9 mph 6 mph 83.1% 0 in
00:14 68.9 °F 63.9 °F 30 in NE 3.6 mph 6.2 mph 84% 0 in
00:19 68.7 °F 63.7 °F 30 in NE 3.6 mph 6 mph 84% 0 in
00:24 68.7 °F 63.7 °F 30 in NE 3.6 mph 6.9 mph 84% 0 in
00:29 68.5 °F 63.5 °F 30 in NE 3.7 mph 7 mph 84% 0 in
00:34 68.5 °F 63.7 °F 30 in NE 4 mph 6.4 mph 84.5% 0 in
00:39 68.5 °F 63.9 °F 30 in NE 4 mph 7 mph 85% 0 in
00:44 68.5 °F 63.9 °F 30 in NE 4 mph 7.4 mph 85% 0 in
00:49 68.5 °F 63.9 °F 30 in NE 4.2 mph 8.5 mph 85% 0 in
00:54 68.5 °F 63.9 °F 30 in NE 5.2 mph 9 mph 85% 0 in
00:59 68.7 °F 63.9 °F 30 in NE 5 mph 7 mph 84.8% 0 in
01:04 68.7 °F 63.7 °F 30 in NNE 4.3 mph 6 mph 84% 0 in
01:09 68.7 °F 63.7 °F 30 in NE 4 mph 5 mph 84% 0 in
01:14 68.7 °F 63.7 °F 30 in North 2.9 mph 5 mph 84% 0 in
01:19 68.5 °F 63.5 °F 30 in NNO 2.7 mph 5 mph 84% 0 in
01:24 68.5 °F 63.7 °F 30 in NNO 2 mph 3.5 mph 84.8% 0 in
01:29 68.5 °F 63.9 °F 30 in NNO 2 mph 3 mph 85% 0 in
01:34 68.4 °F 63.7 °F 30 in NNO 1.8 mph 3.5 mph 85% 0 in
01:39 68.4 °F 63.7 °F 30 in NNO 1.7 mph 3 mph 85% 0 in
01:44 68.4 °F 63.7 °F 30 in NNO 1.4 mph 2.9 mph 85% 0 in
01:49 68.4 °F 63.7 °F 30 in NNO 1.4 mph 3 mph 85% 0 in
01:54 68.4 °F 63.7 °F 30 in NNO 1.4 mph 3 mph 85% 0 in
01:59 68.2 °F 63.7 °F 30 in NNO 1.1 mph 2.4 mph 85.4% 0 in
02:04 68.2 °F 63.9 °F 30.1 in Calm   2.9 mph 86% 0 in
02:09 68.2 °F 63.9 °F 30.1 in Calm   3 mph 86% 0 in
02:14 68.4 °F 63.9 °F 30.1 in Calm   2.4 mph 86% 0 in
02:19 68.4 °F 64 °F 30.1 in NNO 0.2 mph 2.4 mph 86% 0 in
02:24 68.4 °F 64 °F 30.1 in NNO 1.4 mph 2.4 mph 86% 0 in
02:29 68.5 °F 64.2 °F 30.1 in NNO 1.4 mph 2.4 mph 86% 0 in
02:34 68.5 °F 64 °F 30.1 in NNO 1.4 mph 2.3 mph 85.7% 0 in
02:39 68.5 °F 63.9 °F 30.1 in NNO 1.1 mph 3.5 mph 85% 0 in
02:44 68.7 °F 64 °F 30.1 in Calm   3 mph 85% 0 in
02:49 68.7 °F 64 °F 30.1 in Calm   2.4 mph 85% 0 in
02:54 68.7 °F 64 °F 30.1 in Calm   2.4 mph 85% 0 in
02:59 68.7 °F 64 °F 30.1 in Calm   2.4 mph 85% 0 in
03:04 68.9 °F 64 °F 30.1 in Calm   2.3 mph 85% 0 in
03:09 68.9 °F 64.2 °F 30.1 in Calm   2 mph 85% 0 in
03:14 68.9 °F 64.2 °F 30.1 in Calm   2.9 mph 85% 0 in
03:19 68.9 °F 64.2 °F 30.1 in NNO 0.2 mph 3 mph 85% 0 in
03:24 68.9 °F 64 °F 30.1 in NE 1.4 mph 4.6 mph 84.2% 0 in
03:29 68.7 °F 63.9 °F 30.1 in Este 1.5 mph 5 mph 84% 0 in
03:34 68.7 °F 63.7 °F 30.1 in Este 1.8 mph 3.6 mph 84% 0 in
03:39 68.7 °F 63.7 °F 30.1 in Este 1.9 mph 4 mph 84% 0 in
03:44 68.7 °F 63.7 °F 30.1 in SE 2 mph 4.6 mph 84% 0 in
03:49 68.7 °F 63.7 °F 30.1 in SE 2.1 mph 5 mph 84% 0 in
03:54 68.7 °F 63.7 °F 30.1 in SE 2.4 mph 5 mph 84% 0 in
03:59 68.7 °F 63.7 °F 30.1 in SE 2.4 mph 4 mph 84% 0 in
04:04 68.7 °F 63.7 °F 30.1 in SE 2.4 mph 4 mph 84% 0 in
04:09 68.9 °F 63.9 °F 30.1 in SE 2.2 mph 3.6 mph 84% 0 in
04:14 69.1 °F 63.9 °F 30.1 in SE 1.4 mph 4 mph 83.8% 0 in
04:19 69.1 °F 63.7 °F 30.1 in SE 1.5 mph 4 mph 83% 0 in
04:24 69.1 °F 63.7 °F 30.1 in SE 2 mph 4.6 mph 83% 0 in
04:29 69.3 °F 63.9 °F 30.1 in SSE 2.1 mph 5 mph 83% 0 in
04:34 69.3 °F 63.9 °F 30.1 in SSE 2.4 mph 5 mph 83% 0 in
04:39 69.3 °F 63.5 °F 30 in SSE 2.3 mph 4 mph 82.2% 0 in
04:44 69.3 °F 63.9 °F 30 in Sur 2 mph 4.6 mph 83% 0 in
04:49 69.4 °F 63.9 °F 30.1 in Sur 2.2 mph 5.8 mph 82.7% 0 in
04:54 69.4 °F 63.9 °F 30.1 in SE 2.9 mph 6 mph 82.6% 0 in
04:59 69.4 °F 63.7 °F 30.1 in SSO 2.7 mph 4.7 mph 82% 0 in
05:04 69.4 °F 63.7 °F 30.1 in SSO 2 mph 5 mph 82% 0 in
05:09 69.4 °F 63.7 °F 30 in SSO 2.2 mph 5 mph 82% 0 in
05:14 69.6 °F 63.9 °F 30 in SSO 2.9 mph 5 mph 82% 0 in
05:19 69.6 °F 63.9 °F 30 in SSO 2.7 mph 4 mph 82% 0 in
05:24 69.6 °F 63.9 °F 30 in SSO 2 mph 5 mph 82% 0 in
05:29 69.8 °F 64 °F 30 in SSO 2 mph 5 mph 82% 0 in
05:34 69.8 °F 64 °F 30 in SO 2 mph 4 mph 82% 0 in
05:39 70 °F 64.2 °F 30 in Sur 2.1 mph 5 mph 82% 0 in
05:44 70 °F 64.2 °F 30 in SSO 2.4 mph 5.2 mph 82% 0 in
05:49 70 °F 64.2 °F 30 in SSO 2.4 mph 5 mph 82% 0 in
05:54 69.8 °F 64 °F 30 in Sur 2.4 mph 5 mph 82% 0 in
05:59 69.8 °F 64 °F 30 in SSO 2.4 mph 5 mph 82% 0 in
06:04 69.8 °F 64 °F 30.1 in Sur 2.4 mph 3.6 mph 82% 0 in
06:09 69.6 °F 63.9 °F 30.1 in SSO 2.4 mph 4.7 mph 82% 0 in
06:14 69.6 °F 63.9 °F 30.1 in SSO 2.4 mph 5 mph 82% 0 in
06:19 69.6 °F 63.9 °F 30.1 in SSO 2.6 mph 5.2 mph 82% 0 in
06:24 69.6 °F 63.9 °F 30.1 in Sur 3.6 mph 5.2 mph 82% 0 in
06:29 69.6 °F 63.9 °F 30.1 in Sur 3.4 mph 5 mph 82% 0 in
06:34 69.6 °F 63.9 °F 30.1 in Sur 2.9 mph 5.8 mph 82% 0 in
06:39 69.6 °F 63.9 °F 30.1 in SSO 3 mph 6 mph 82% 0 in
06:44 69.6 °F 63.9 °F 30.1 in SSE 3.6 mph 6 mph 82% 0 in
06:49 69.6 °F 63.9 °F 30.1 in Sur 3.5 mph 6.9 mph 82% 0 in
06:54 69.6 °F 63.9 °F 30.1 in SSO 3.1 mph 7 mph 82% 0 in
06:59 69.4 °F 63.9 °F 30.1 in Sur 3.3 mph 7 mph 82.4% 0 in
07:04 69.6 °F 64.2 °F 30.1 in Sur 4 mph 5.2 mph 83% 0 in
07:09 69.6 °F 64.2 °F 30.1 in SO 3.9 mph 6.2 mph 83% 0 in
07:14 69.6 °F 64.2 °F 30.1 in Sur 3.6 mph 6 mph 83% 0 in
07:19 69.6 °F 64.2 °F 30.1 in ENE 3.5 mph 5 mph 83% 0 in
07:24 69.4 °F 64 °F 30.1 in Este 2.9 mph 4 mph 83% 0 in
07:29 69.3 °F 64 °F 30.1 in SSE 2.9 mph 4.6 mph 83.5% 0 in
07:34 69.3 °F 64.2 °F 30.1 in SSO 2.4 mph 5 mph 84% 0 in
07:39 69.3 °F 64 °F 30.1 in SSO 2.3 mph 5 mph 84% 0 in
07:44 69.1 °F 64 °F 30.1 in SSO 1.8 mph 2.3 mph 84% 0 in
07:49 69.1 °F 64 °F 30.1 in SSO 1.5 mph 1 mph 84% 0 in
07:54 68.9 °F 64 °F 30.1 in Calm   1.4 mph 84.4% 0 in
07:59 68.9 °F 64.2 °F 30.1 in Calm   1.4 mph 85% 0 in
08:04 68.7 °F 64 °F 30.1 in Calm   2.4 mph 85% 0 in
08:09 68.7 °F 64 °F 30.1 in Calm   2.3 mph 85% 0 in
08:14 68.7 °F 64 °F 30.1 in Calm   2.4 mph 85% 0 in
08:19 68.7 °F 64 °F 30.1 in Calm   2.3 mph 85% 0 in
08:24 68.7 °F 64 °F 30.1 in Calm   2.9 mph 85% 0 in
08:29 68.5 °F 64 °F 30.1 in SSO 0.2 mph 3.5 mph 85.3% 0 in
08:34 68.5 °F 64.2 °F 30.1 in Sur 1.4 mph 3 mph 86% 0 in
08:39 68.5 °F 64.2 °F 30.1 in SSE 1.1 mph 3 mph 86% 0 in
08:44 68.5 °F 64.2 °F 30.1 in Calm   4.6 mph 86% 0 in
08:49 68.5 °F 64.2 °F 30.1 in SE 0.4 mph 5.2 mph 86% 0 in
08:54 68.5 °F 64.2 °F 30.1 in SE 2.4 mph 5.2 mph 86% 0 in
08:59 68.4 °F 64 °F 30.1 in SE 2.5 mph 5.9 mph 86% 0 in
09:04 68.5 °F 64.2 °F 30.1 in SE 3.1 mph 6 mph 86% 0 in
09:09 68.5 °F 64.2 °F 30.1 in SSE 3.3 mph 6.9 mph 86% 0 in
09:14 68.9 °F 64.4 °F 30.1 in SSE 4 mph 7 mph 86% 0 in
09:19 69.3 °F 64.6 °F 30.1 in SSE 3.9 mph 6 mph 85.4% 0 in
09:24 69.6 °F 64.8 °F 30.1 in Sur 3.6 mph 6 mph 84.5% 0 in
09:29 70 °F 64.9 °F 30.1 in Sur 3.7 mph 6 mph 83.6% 0 in
09:34 70.3 °F 64.9 °F 30.1 in SSE 4 mph 6 mph 83% 0 in
09:39 70.9 °F 65.3 °F 30.1 in SSE 3.9 mph 5 mph 82.5% 0 in
09:44 71.2 °F 65.3 °F 30.1 in SSE 2.9 mph 5.2 mph 81.2% 0 in
09:49 71.8 °F 65.3 °F 30.1 in SSE 2.9 mph 5 mph 80% 0 in
09:54 72.3 °F 65.5 °F 30.1 in SE 2.9 mph 5 mph 79.1% 0 in
09:59 73 °F 65.7 °F 30.1 in SE 2.6 mph 5 mph 77.9% 0 in
10:04 73.6 °F 65.5 °F 30.1 in ESE 1.8 mph 5.2 mph 76% 0 in
10:09 73.4 °F 65.1 °F 30.1 in Este 2.1 mph 5.8 mph 75.6% 0 in
10:14 73 °F 65.1 °F 30.1 in Este 3.1 mph 6 mph 76.4% 0 in
10:19 73.2 °F 65.1 °F 30.1 in Este 3 mph 5.8 mph 75.9% 0 in
10:24 73.2 °F 65.1 °F 30.1 in ESE 2.9 mph 6 mph 76% 0 in
10:29 73.4 °F 65.3 °F 30.1 in Este 2.9 mph 6 mph 75.8% 0 in
10:34 73.8 °F 65.3 °F 30.1 in NNE 2.9 mph 6 mph 75% 0 in
10:39 73.9 °F 65.5 °F 30.1 in NNE 2.9 mph 5.8 mph 75% 0 in
10:44 73.9 °F 65.5 °F 30.1 in NNE 2.9 mph 6 mph 74.6% 0 in
10:49 73.9 °F 65.1 °F 30.1 in NE 3 mph 8.1 mph 73.6% 0 in
10:54 73.6 °F 64.9 °F 30.1 in NNE 3.6 mph 8.5 mph 74.5% 0 in
10:59 73.2 °F 65.1 °F 30.1 in ENE 3.7 mph 9 mph 75.7% 0 in
11:04 73.8 °F 65.3 °F 30.1 in ENE 4 mph 6 mph 75% 0 in
11:09 73.9 °F 65.3 °F 30.1 in SE 3.9 mph 6.2 mph 74.3% 0 in
11:14 74.5 °F 65.3 °F 30.1 in ENE 3.1 mph 8.1 mph 73.4% 0 in
11:19 74.5 °F 64.9 °F 30.1 in NE 3.4 mph 8.5 mph 72.4% 0 in
11:24 74.5 °F 65.3 °F 30.1 in NE 4.7 mph 9 mph 73% 0 in
11:29 74.7 °F 65.3 °F 30.1 in NE 4.5 mph 6 mph 72.8% 0 in
11:34 75 °F 65.3 °F 30.1 in Este 3.1 mph 6 mph 72% 0 in
11:39 75.6 °F 65.1 °F 30.1 in ENE 3.2 mph 6.9 mph 70.4% 0 in
11:44 75.9 °F 65.1 °F 30.1 in NE 3.6 mph 8.1 mph 69.5% 0 in
11:49 75.9 °F 64.6 °F 30.1 in NNE 3.7 mph 11.8 mph 67.9% 0 in
11:54 75.6 °F 64.2 °F 30.1 in NNE 4.3 mph 12 mph 67.7% 0 in
11:59 75.4 °F 64.2 °F 30.1 in NE 4.4 mph 9.7 mph 68.4% 0 in
12:04 75.2 °F 63.7 °F 30.1 in NE 4.7 mph 10.4 mph 67.3% 0 in
12:09 75.4 °F 63.5 °F 30.1 in ENE 5 mph 10.4 mph 66.8% 0 in
12:14 75.9 °F 63.7 °F 30.1 in ENE 6.2 mph 11.5 mph 66.1% 0 in
12:19 76.3 °F 63.5 °F 30.1 in NE 6 mph 12 mph 64.8% 0 in
12:24 76.3 °F 64.2 °F 30.1 in NNE 5.2 mph 12 mph 66.1% 0 in
12:29 76.3 °F 63.5 °F 30.1 in NNE 5.5 mph 12 mph 64.4% 0 in
12:34 76.3 °F 63.5 °F 30.1 in NNE 6.9 mph 12 mph 64.7% 0 in
12:39 76.1 °F 63.5 °F 30.1 in NE 6.6 mph 10.4 mph 65% 0 in
12:44 75.9 °F 63.5 °F 30.1 in NE 5.2 mph 9 mph 65.3% 0 in
12:49 75.9 °F 63.3 °F 30.1 in NNE 5.1 mph 7 mph 65.1% 0 in
12:54 75.9 °F 63 °F 30.1 in ENE 4.7 mph 11.5 mph 64.2% 0 in
12:59 76.1 °F 63 °F 30.1 in NE 5 mph 12 mph 63.9% 0 in
13:04 76.5 °F 63.3 °F 30.1 in Este 5.9 mph 9.2 mph 64% 0 in
13:09 76.8 °F 63.5 °F 30.1 in NE 5.5 mph 9 mph 63.6% 0 in
13:14 77 °F 63.3 °F 30.1 in NE 4 mph 11.5 mph 63% 0 in
13:19 77.2 °F 63.5 °F 30.1 in NE 4.3 mph 12 mph 62.8% 0 in
13:24 77.4 °F 63.5 °F 30.1 in ENE 5.4 mph 9.2 mph 62.4% 0 in
13:29 77.9 °F 63.7 °F 30.1 in NE 5.4 mph 10.4 mph 61.7% 0 in
13:34 77.5 °F 63.1 °F 30.1 in NNE 5.4 mph 10.2 mph 60.9% 0 in
13:39 77.5 °F 62.6 °F 30.1 in NNE 5.4 mph 10 mph 60% 0 in
13:44 77.5 °F 63.1 °F 30.1 in NNE 5.4 mph 9.2 mph 61.2% 0 in
13:49 77.7 °F 63.5 °F 30.1 in NE 5.4 mph 11.5 mph 61.4% 0 in
13:54 77.5 °F 62.8 °F 30.1 in NNE 5.4 mph 13 mph 60.5% 0 in
13:59 77.2 °F 63.1 °F 30.1 in NNE 5.9 mph 13 mph 61.8% 0 in
14:04 77.2 °F 63.1 °F 30.1 in NE 7.6 mph 12 mph 62% 0 in
14:09 77.4 °F 63 °F 30.1 in NE 7.4 mph 12.7 mph 61.3% 0 in
14:14 77.4 °F 63 °F 30.1 in ENE 6.4 mph 13 mph 61.3% 0 in
14:19 77.4 °F 63 °F 30.1 in Este 6 mph 8 mph 60.9% 0 in
14:24 77.7 °F 63 °F 30.1 in NE 4 mph 10.7 mph 60.3% 0 in
14:29 77.5 °F 62.6 °F 30.1 in NE 4.3 mph 11 mph 60% 0 in
14:34 77.5 °F 62.4 °F 30.1 in NE 5.4 mph 9 mph 59.6% 0 in
14:39 77.5 °F 62.2 °F 30.1 in NE 5.1 mph 8 mph 59.3% 0 in
14:44 77.7 °F 61.9 °F 30.1 in NE 3.6 mph 9.2 mph 58.2% 0 in
14:49 77.7 °F 61.7 °F 30.1 in NNE 3.9 mph 9.2 mph 57.9% 0 in
14:54 77.7 °F 61.7 °F 30.1 in NE 5.4 mph 9 mph 57.8% 0 in
14:59 77.7 °F 61.3 °F 30.1 in NNE 5.1 mph 7 mph 57% 0 in
15:04 77.9 °F 61.5 °F 30.1 in NE 4 mph 8.1 mph 57.1% 0 in
15:09 78.3 °F 62.1 °F 30.1 in NE 4.2 mph 11.5 mph 57.6% 0 in
15:14 78.4 °F 62.1 °F 30.1 in NE 4.7 mph 13.8 mph 57.4% 0 in
15:19 78.6 °F 61.9 °F 30.1 in NE 5.1 mph 14 mph 56.8% 0 in
15:24 78.6 °F 61.9 °F 30.1 in NE 6.9 mph 11.5 mph 56.6% 0 in
15:29 78.4 °F 63 °F 30.1 in NE 6.8 mph 13.5 mph 58.8% 0 in
15:34 78.6 °F 63.5 °F 30.1 in NE 6.4 mph 15.2 mph 59.7% 0 in
15:39 78.8 °F 63.7 °F 30.1 in NE 6.9 mph 17.3 mph 60% 0 in
15:44 79 °F 63.9 °F 30.1 in NE 9.2 mph 17 mph 59.7% 0 in
15:49 79.2 °F 63.7 °F 30.1 in ENE 8.9 mph 14 mph 59% 0 in
15:54 79.3 °F 64.2 °F 30.1 in NE 7.4 mph 13 mph 60.2% 0 in
15:59 79.3 °F 64.4 °F 30.1 in ENE 7.3 mph 13 mph 60.5% 0 in
16:04 79.3 °F 64.2 °F 30.1 in ENE 6.9 mph 12 mph 60.2% 0 in
16:09 79.3 °F 64 °F 30.1 in NE 6.8 mph 11.5 mph 59.6% 0 in
16:14 79.2 °F 64 °F 30.1 in NE 6.2 mph 12 mph 59.8% 0 in
16:19 79.2 °F 64 °F 30.1 in Este 6.3 mph 12 mph 60% 0 in
16:24 79.2 °F 64 °F 30.1 in Este 6.9 mph 11.5 mph 60% 0 in
16:29 78.8 °F 64.2 °F 30.1 in Este 6.9 mph 13.8 mph 60.7% 0 in
16:34 79 °F 64.8 °F 30.1 in ENE 6.9 mph 14 mph 61.8% 0 in
16:39 79.2 °F 64.6 °F 30.1 in NE 6.8 mph 12.7 mph 61.1% 0 in
16:44 78.8 °F 64.6 °F 30.1 in NE 6.4 mph 15 mph 61.5% 0 in
16:49 78.4 °F 64.4 °F 30.1 in NE 6.6 mph 15 mph 62.2% 0 in
16:54 78.1 °F 64.4 °F 30.1 in NE 7.6 mph 14 mph 62.7% 0 in
16:59 77.9 °F 64.2 °F 30.1 in ENE 7.6 mph 13 mph 63% 0 in
17:04 77.5 °F 64.2 °F 30.1 in NE 7.4 mph 13.8 mph 63.5% 0 in
17:09 77.5 °F 64.4 °F 30.1 in ENE 7.1 mph 14 mph 64% 0 in
17:14 77.5 °F 64 °F 30.1 in ENE 5.9 mph 15 mph 63.3% 0 in
17:19 77.5 °F 64 °F 30.1 in ENE 6 mph 15 mph 63.5% 0 in
17:24 77.4 °F 64.2 °F 30.1 in ENE 6.4 mph 12 mph 63.9% 0 in
17:29 77.5 °F 63.9 °F 30.1 in NE 6.4 mph 13 mph 63% 0 in
17:34 77.7 °F 63.9 °F 30.1 in NE 6.2 mph 15.2 mph 62.6% 0 in
17:39 77.5 °F 63.5 °F 30.1 in NE 6.7 mph 15 mph 62% 0 in
17:44 77.5 °F 63.9 °F 30.1 in ENE 8.7 mph 15 mph 63% 0 in
17:49 77.5 °F 63.7 °F 30.1 in NE 8.4 mph 14.7 mph 62.5% 0 in
17:54 77.5 °F 63.5 °F 30.1 in NE 6.9 mph 15 mph 62.2% 0 in
17:59 77.4 °F 63.9 °F 30.1 in NE 7.1 mph 15 mph 63% 0 in
18:04 77.5 °F 63.9 °F 30.1 in NE 7.6 mph 15 mph 62.8% 0 in
18:09 77.5 °F 63.5 °F 30.1 in NE 7.3 mph 14 mph 62% 0 in
18:14 77.4 °F 63 °F 30.1 in ENE 6.4 mph 14 mph 61.1% 0 in
18:19 77.4 °F 63 °F 30.1 in NE 6.7 mph 13 mph 61% 0 in
18:24 77.4 °F 63 °F 30.1 in ENE 8.1 mph 15.2 mph 61.5% 0 in
18:29 77 °F 63 °F 30.1 in NE 8 mph 15 mph 62% 0 in
18:34 77 °F 62.8 °F 30.1 in NE 7.6 mph 13 mph 61.4% 0 in
18:39 77 °F 62.2 °F 30.1 in ENE 7.3 mph 12 mph 60.7% 0 in
18:44 76.8 °F 62.4 °F 30.1 in ENE 5.9 mph 10.4 mph 61.4% 0 in
18:49 76.6 °F 62.6 °F 30.1 in ENE 5.8 mph 11.5 mph 62% 0 in
18:54 76.3 °F 62.4 °F 30.1 in ENE 5.4 mph 12 mph 62% 0 in
18:59 76.1 °F 62.6 °F 30.1 in ENE 5.4 mph 10 mph 62.9% 0 in
19:04 75.9 °F 62.4 °F 30.1 in ENE 5.4 mph 10 mph 63% 0 in
19:09 75.7 °F 62.4 °F 30.1 in ENE 5.4 mph 10 mph 63.5% 0 in
19:14 75.6 °F 62.8 °F 30.1 in ENE 5.4 mph 9.2 mph 64.3% 0 in
19:19 75.6 °F 63 °F 30.1 in ENE 5.3 mph 9 mph 65.1% 0 in
19:24 75.2 °F 63.1 °F 30.1 in ENE 4.7 mph 8.5 mph 66% 0 in
19:29 74.8 °F 63 °F 30.1 in NE 4.8 mph 9.7 mph 66.4% 0 in
19:34 74.7 °F 63 °F 30.1 in NE 5.2 mph 11.5 mph 67% 0 in
19:39 74.7 °F 63 °F 30.1 in NE 5.3 mph 12 mph 67% 0 in
19:44 74.5 °F 63.1 °F 30.1 in NE 5.9 mph 10 mph 67.9% 0 in
19:49 74.1 °F 63.3 °F 30.1 in NE 5.9 mph 10.4 mph 68.9% 0 in
19:54 73.9 °F 63.5 °F 30.1 in NE 5.9 mph 9.7 mph 69.9% 0 in
19:59 73.8 °F 63.7 °F 30.1 in NE 5.7 mph 10 mph 70.7% 0 in
20:04 73.8 °F 64 °F 30.1 in NE 5.2 mph 9.2 mph 71.7% 0 in
20:09 73.6 °F 64 °F 30.1 in NE 5.2 mph 9 mph 72.3% 0 in
20:14 73.2 °F 64 °F 30.1 in NE 5.2 mph 7 mph 73% 0 in
20:19 73 °F 64 °F 30.1 in NE 5 mph 7 mph 73.4% 0 in
20:24 73 °F 64.2 °F 30.1 in NE 4.3 mph 8.1 mph 74.1% 0 in
20:29 72.9 °F 64.6 °F 30.1 in NE 4.3 mph 8 mph 75% 0 in
20:34 72.7 °F 64.4 °F 30.1 in NE 4.3 mph 7 mph 75.2% 0 in
20:39 72.7 °F 64.6 °F 30.1 in NE 4.3 mph 7 mph 76% 0 in
20:44 72.5 °F 64.4 °F 30.1 in NE 4.3 mph 7 mph 76% 0 in
20:49 72.3 °F 64.6 °F 30.1 in NE 4.3 mph 6.9 mph 76.8% 0 in
20:54 72.1 °F 64.6 °F 30.1 in NE 4.3 mph 7 mph 77% 0 in
20:59 72 °F 64.6 °F 30.1 in NE 4.3 mph 6.2 mph 77.7% 0 in
21:04 72 °F 64.8 °F 30.1 in NE 4.3 mph 6 mph 78% 0 in
21:09 72 °F 64.8 °F 30.1 in NE 4.2 mph 6.2 mph 78% 0 in
21:14 72 °F 64.8 °F 30.1 in NE 4 mph 7.4 mph 78% 0 in
21:19 72 °F 64.8 °F 30.1 in NE 3.9 mph 7 mph 78% 0 in
21:24 72 °F 64.8 °F 30.1 in NE 3.1 mph 6 mph 78% 0 in
21:29 71.8 °F 64.6 °F 30.1 in NE 3.2 mph 6 mph 78.1% 0 in
21:34 71.8 °F 64.9 °F 30.1 in NE 3.6 mph 6 mph 79% 0 in
21:39 71.6 °F 64.8 °F 30.1 in NE 3.7 mph 6.2 mph 79% 0 in
21:44 71.6 °F 64.8 °F 30.1 in NE 4 mph 6 mph 79% 0 in
21:49 71.6 °F 64.8 °F 30.1 in NE 3.8 mph 5 mph 79% 0 in
21:54 71.6 °F 64.8 °F 30.1 in NE 2.9 mph 5.2 mph 79% 0 in
21:59 71.6 °F 64.8 °F 30.1 in NE 2.7 mph 5 mph 79% 0 in
22:04 71.6 °F 64.8 °F 30.1 in NE 2 mph 3.5 mph 79% 0 in
22:09 71.6 °F 64.8 °F 30.1 in NE 2 mph 4 mph 79% 0 in
22:14 71.4 °F 64.6 °F 30.1 in NE 2 mph 4.6 mph 79% 0 in
22:19 71.4 °F 64.6 °F 30.1 in ENE 2 mph 5 mph 79% 0 in
22:24 71.6 °F 64.6 °F 30.1 in ESE 2 mph 3.6 mph 79% 0 in
22:29 71.6 °F 64.8 °F 30.1 in ESE 2 mph 4 mph 79% 0 in
22:34 71.6 °F 64.8 °F 30.1 in ENE 2 mph 4 mph 79% 0 in
22:39 71.4 °F 64.6 °F 30.1 in ESE 2 mph 3.6 mph 79% 0 in
22:44 71.6 °F 64.8 °F 30.1 in Este 2 mph 4 mph 79% 0 in
22:49 71.6 °F 64.8 °F 30.1 in Este 1.6 mph 2.3 mph 79% 0 in
22:54 71.8 °F 64.9 °F 30.1 in Calm   2.4 mph 79% 0 in
22:59 71.8 °F 64.9 °F 30.1 in Calm   3.1 mph 79% 0 in
23:04 71.8 °F 64.9 °F 30.1 in Calm   4.6 mph 79% 0 in
23:09 71.8 °F 64.9 °F 30.1 in ENE 0.4 mph 5 mph 79% 0 in
23:14 71.8 °F 64.9 °F 30.1 in NE 2 mph 5 mph 79% 0 in
23:19 71.6 °F 64.8 °F 30.1 in NE 2.1 mph 5 mph 79% 0 in
23:24 71.6 °F 64.8 °F 30.1 in NE 2.4 mph 5 mph 79% 0 in
23:29 71.6 °F 64.8 °F 30.1 in NE 2.2 mph 3 mph 79% 0 in
23:34 71.4 °F 64.6 °F 30.1 in NE 1.4 mph 3.5 mph 79% 0 in
23:39 71.4 °F 64.8 °F 30.1 in NE 1.4 mph 3 mph 79.4% 0 in
23:44 71.4 °F 64.9 °F 30.1 in NE 1.4 mph 3.6 mph 80% 0 in
23:49 71.4 °F 64.9 °F 30.1 in NNE 1.4 mph 4 mph 80% 0 in
23:54 71.2 °F 64.9 °F 30.1 in NNE 1.8 mph 3 mph 80% 0 in
23:59 71.2 °F 64.8 °F 30.1 in NNE 1.7 mph 3.5 mph 80% 0 in
Murcia-Puente Tocinos, España
Compliments of Weather Underground - 3 mb

La estación de MeteoMurcia.com, publica sus datos en los siguientes proyectos:

Weather Underground PWS IMURCIAP2 Meteoclimatic www.awekas.at

W3Counter
Web Analytics